Time;durP1;ratioP1;P1;durP2;ratioP2;P2;SDS_P1;SDS_P2;PMS_P1;PMS_P2;Temp;Humidity;BMP_temperature;BMP_pressure;BME280_temperature;BME280_humidity;BME280_pressure;Samples;Min_cycle;Max_cycle;Signal;HPM_P1;HPM_P2
2023/08/15 00:01:58;;;;;;;;;;;28.60;60.00;;;;;;5065995;28;42963;-78
2023/08/15 00:04:24;;;;;;;;;;;28.50;60.40;;;;;;5065128;28;43038;-81
2023/08/15 00:06:49;;;;;;;;;;;28.60;60.40;;;;;;5065694;28;42946;-78
2023/08/15 00:09:15;;;;;;;;;;;28.40;60.30;;;;;;5065911;28;43605;-79
2023/08/15 00:11:40;;;;;;;;;;;28.60;60.40;;;;;;5063437;28;43902;-82
2023/08/15 00:14:06;;;;;;;;;;;28.50;60.20;;;;;;5065446;28;42912;-79
2023/08/15 00:16:31;;;;;;;;;;;28.50;60.60;;;;;;5047089;28;44980;-83
2023/08/15 00:18:57;;;;;;;;;;;28.70;60.50;;;;;;5064971;28;42965;-79
2023/08/15 00:21:22;;;;;;;;;;;28.70;60.80;;;;;;5065321;28;43122;-81
2023/08/15 00:23:48;;;;;;;;;;;28.40;61.30;;;;;;5065933;28;42961;-78
2023/08/15 00:26:13;;;;;;;;;;;28.40;61.20;;;;;;5065492;28;43199;-80
2023/08/15 00:28:39;;;;;;;;;;;28.50;61.60;;;;;;5065594;28;43030;-79
2023/08/15 00:31:05;;;;;;;;;;;28.60;61.60;;;;;;5046326;28;44225;-81
2023/08/15 00:33:30;;;;;;;;;;;28.50;61.50;;;;;;5062078;28;43207;-83
2023/08/15 00:35:56;;;;;;;;;;;28.50;61.30;;;;;;5065503;28;43683;-78
2023/08/15 00:38:21;;;;;;;;;;;28.50;61.40;;;;;;5065732;28;42967;-79
2023/08/15 00:40:47;;;;;;;;;;;28.50;62.10;;;;;;5065355;28;44026;-79
2023/08/15 00:43:17;;;;;;;;;;;28.50;62.00;;;;;;5064446;28;43410;-84
2023/08/15 00:45:42;;;;;;;;;;;28.40;62.40;;;;;;5065125;28;43901;-81
2023/08/15 00:48:09;;;;;;;;;;;28.50;62.10;;;;;;5065440;28;42942;-81
2023/08/15 00:50:34;;;;;;;;;;;28.40;62.30;;;;;;5063787;28;43931;-78
2023/08/15 00:53:01;;;;;;;;;;;28.40;63.20;;;;;;5048309;28;43071;-78
2023/08/15 00:55:27;;;;;;;;;;;28.40;63.00;;;;;;5061777;28;43031;-83
2023/08/15 00:57:53;;;;;;;;;;;28.40;62.90;;;;;;5064900;28;43261;-83
2023/08/15 01:00:18;;;;;;;;;;;28.30;62.60;;;;;;5064591;28;43121;-81
2023/08/15 01:02:45;;;;;;;;;;;28.40;61.60;;;;;;5062796;28;60625;-78
2023/08/15 01:05:14;;;;;;;;;;;28.40;62.30;;;;;;5049088;28;42845;-78
2023/08/15 01:07:40;;;;;;;;;;;28.60;62.40;;;;;;5064739;28;44239;-83
2023/08/15 01:10:06;;;;;;;;;;;28.40;61.90;;;;;;5064676;28;43614;-80
2023/08/15 01:12:40;;;;;;;;;;;28.40;61.40;;;;;;5060451;28;43151;-79
2023/08/15 01:15:07;;;;;;;;;;;28.60;62.30;;;;;;5056515;28;43143;-78
2023/08/15 01:17:45;;;;;;;;;;;28.80;62.30;;;;;;5061896;28;42908;-81
2023/08/15 01:20:14;;;;;;;;;;;28.50;62.50;;;;;;5064682;28;43005;-81
2023/08/15 01:22:43;;;;;;;;;;;28.30;61.80;;;;;;5043287;28;43962;-80
2023/08/15 01:25:08;;;;;;;;;;;28.30;61.70;;;;;;5049922;28;43623;-79
2023/08/15 01:27:34;;;;;;;;;;;28.40;61.90;;;;;;5065270;28;43125;-80
2023/08/15 01:30:00;;;;;;;;;;;28.20;62.20;;;;;;5065031;28;43022;-80
2023/08/15 01:32:28;;;;;;;;;;;28.50;62.70;;;;;;5064991;28;42772;-81
2023/08/15 01:35:03;;;;;;;;;;;28.30;60.40;;;;;;5061927;28;42868;-82
2023/08/15 01:37:29;;;;;;;;;;;28.50;62.30;;;;;;5054455;28;43055;-81
2023/08/15 01:39:56;;;;;;;;;;;28.40;61.90;;;;;;5057766;28;43067;-78
2023/08/15 01:42:22;;;;;;;;;;;28.30;61.60;;;;;;5064817;28;44075;-80
2023/08/15 01:44:48;;;;;;;;;;;28.40;61.50;;;;;;5064562;28;43555;-79
2023/08/15 01:47:14;;;;;;;;;;;28.50;61.70;;;;;;5062482;28;43392;-79
2023/08/15 01:49:39;;;;;;;;;;;28.90;61.80;;;;;;5061577;28;43641;-79
2023/08/15 01:52:05;;;;;;;;;;;28.40;61.30;;;;;;5064196;28;43002;-81
2023/08/15 01:54:30;;;;;;;;;;;28.40;61.20;;;;;;5061955;28;43615;-80
2023/08/15 01:56:56;;;;;;;;;;;28.40;61.60;;;;;;5063666;28;42988;-78
2023/08/15 01:59:21;;;;;;;;;;;28.30;62.10;;;;;;5064613;28;43491;-83
2023/08/15 02:01:47;;;;;;;;;;;28.40;63.20;;;;;;5064198;28;42813;-82
2023/08/15 02:04:12;;;;;;;;;;;28.20;63.30;;;;;;5063512;28;43133;-79
2023/08/15 02:06:38;;;;;;;;;;;28.10;63.30;;;;;;5064352;28;43046;-78
2023/08/15 02:09:03;;;;;;;;;;;28.40;63.70;;;;;;5060212;28;43054;-79
2023/08/15 02:11:29;;;;;;;;;;;28.10;63.20;;;;;;5063824;28;42903;-79
2023/08/15 02:13:54;;;;;;;;;;;28.10;63.30;;;;;;5058645;28;43714;-82
2023/08/15 02:16:20;;;;;;;;;;;28.20;63.40;;;;;;5062540;28;42901;-78
2023/08/15 02:18:45;;;;;;;;;;;28.10;63.00;;;;;;5061645;28;43510;-82
2023/08/15 02:21:11;;;;;;;;;;;28.20;62.60;;;;;;5062011;28;44030;-78
2023/08/15 02:23:36;;;;;;;;;;;28.10;62.50;;;;;;5061207;28;43831;-81
2023/08/15 02:26:02;;;;;;;;;;;28.10;62.70;;;;;;5061450;28;44341;-78
2023/08/15 02:28:28;;;;;;;;;;;28.60;63.50;;;;;;5062071;28;42879;-81
2023/08/15 02:30:53;;;;;;;;;;;28.20;63.00;;;;;;5044760;28;42973;-82
2023/08/15 02:33:19;;;;;;;;;;;27.90;62.40;;;;;;5063973;28;44060;-79
2023/08/15 02:35:44;;;;;;;;;;;28.10;62.50;;;;;;5062045;28;43290;-81
2023/08/15 02:38:10;;;;;;;;;;;28.40;62.40;;;;;;5063075;28;42918;-80
2023/08/15 02:40:35;;;;;;;;;;;28.20;62.30;;;;;;5063622;28;42905;-82
2023/08/15 02:43:01;;;;;;;;;;;28.20;61.90;;;;;;5063592;28;42875;-81
2023/08/15 02:45:26;;;;;;;;;;;28.30;62.20;;;;;;5062128;28;42977;-78
2023/08/15 02:47:52;;;;;;;;;;;28.50;62.30;;;;;;5063307;28;43885;-83
2023/08/15 02:50:18;;;;;;;;;;;28.30;62.10;;;;;;5061547;28;42771;-80
2023/08/15 02:52:43;;;;;;;;;;;28.40;62.70;;;;;;5063661;28;43130;-82
2023/08/15 02:55:09;;;;;;;;;;;28.30;62.30;;;;;;5063187;28;43221;-78
2023/08/15 02:57:34;;;;;;;;;;;28.10;62.20;;;;;;5065607;28;42987;-79
2023/08/15 03:00:00;;;;;;;;;;;28.10;62.80;;;;;;5067337;28;43081;-79
2023/08/15 03:02:25;;;;;;;;;;;28.10;62.80;;;;;;5067224;28;43548;-79
2023/08/15 03:04:51;;;;;;;;;;;28.10;62.90;;;;;;5067049;28;42942;-77
2023/08/15 03:07:16;;;;;;;;;;;27.90;63.20;;;;;;5065754;28;43781;-80
2023/08/15 03:09:42;;;;;;;;;;;28.20;63.40;;;;;;5052162;28;42911;-78
2023/08/15 03:12:07;;;;;;;;;;;28.00;63.10;;;;;;5062476;28;43141;-79
2023/08/15 03:14:33;;;;;;;;;;;27.70;62.90;;;;;;5066584;28;42975;-78
2023/08/15 03:16:58;;;;;;;;;;;27.90;62.90;;;;;;5066749;28;43152;-79
2023/08/15 03:19:24;;;;;;;;;;;28.10;63.20;;;;;;5066662;28;42968;-79
2023/08/15 03:21:49;;;;;;;;;;;27.70;62.90;;;;;;5066860;28;42872;-80
2023/08/15 03:24:15;;;;;;;;;;;27.80;63.10;;;;;;5064859;28;42923;-81
2023/08/15 03:26:42;;;;;;;;;;;27.70;62.80;;;;;;5066448;28;43486;-78
2023/08/15 03:29:07;;;;;;;;;;;28.00;62.90;;;;;;5066176;28;42866;-81
2023/08/15 03:31:33;;;;;;;;;;;28.10;62.80;;;;;;5048110;28;44879;-79
2023/08/15 03:33:59;;;;;;;;;;;28.10;62.60;;;;;;5065836;28;43032;-82
2023/08/15 03:36:25;;;;;;;;;;;28.10;62.60;;;;;;5066266;28;43406;-78
2023/08/15 03:38:50;;;;;;;;;;;28.00;62.50;;;;;;5063304;28;43139;-81
2023/08/15 03:41:16;;;;;;;;;;;28.00;62.60;;;;;;5064277;28;45359;-78
2023/08/15 03:43:41;;;;;;;;;;;27.90;63.60;;;;;;5061244;28;42971;-78
2023/08/15 03:46:07;;;;;;;;;;;27.80;62.80;;;;;;5047516;28;43654;-78
2023/08/15 03:48:33;;;;;;;;;;;27.70;63.30;;;;;;5066495;28;43277;-78
2023/08/15 03:50:59;;;;;;;;;;;27.80;63.10;;;;;;5059378;28;43410;-78
2023/08/15 03:53:25;;;;;;;;;;;27.90;62.80;;;;;;5052104;28;43101;-81
2023/08/15 03:55:51;;;;;;;;;;;27.70;62.70;;;;;;5061407;28;43298;-77
2023/08/15 03:58:17;;;;;;;;;;;27.70;63.10;;;;;;5062313;28;42942;-79
2023/08/15 04:00:43;;;;;;;;;;;27.70;63.20;;;;;;5060359;28;43068;-78
2023/08/15 04:03:08;;;;;;;;;;;27.90;63.50;;;;;;5057169;28;43207;-78
2023/08/15 04:05:34;;;;;;;;;;;27.80;63.20;;;;;;5065576;28;43955;-77
2023/08/15 04:07:59;;;;;;;;;;;27.60;63.60;;;;;;5064517;28;42973;-78
2023/08/15 04:10:25;;;;;;;;;;;27.70;63.50;;;;;;5058303;28;43277;-81
2023/08/15 04:12:50;;;;;;;;;;;27.70;63.30;;;;;;5061698;28;43281;-78
2023/08/15 04:15:16;;;;;;;;;;;27.70;63.50;;;;;;5063741;28;43557;-79
2023/08/15 04:17:41;;;;;;;;;;;27.60;63.90;;;;;;5065438;28;42911;-81
2023/08/15 04:20:07;;;;;;;;;;;27.60;64.00;;;;;;5064265;28;43600;-79
2023/08/15 04:22:34;;;;;;;;;;;27.80;63.00;;;;;;5064317;28;43042;-80
2023/08/15 04:25:00;;;;;;;;;;;27.70;63.20;;;;;;5064801;28;43003;-83
2023/08/15 04:27:25;;;;;;;;;;;27.90;63.30;;;;;;5065057;28;42745;-78
2023/08/15 04:29:51;;;;;;;;;;;28.00;63.10;;;;;;5063271;28;43617;-79
2023/08/15 04:32:17;;;;;;;;;;;27.90;63.10;;;;;;5059699;28;43124;-83
2023/08/15 04:34:43;;;;;;;;;;;28.00;63.10;;;;;;5055398;28;43734;-83
2023/08/15 04:37:08;;;;;;;;;;;27.80;62.80;;;;;;5065227;28;43183;-82
2023/08/15 04:39:34;;;;;;;;;;;27.70;63.20;;;;;;5065187;28;42887;-79
2023/08/15 04:41:59;;;;;;;;;;;27.30;63.00;;;;;;5063727;28;42940;-80
2023/08/15 04:44:25;;;;;;;;;;;27.70;63.50;;;;;;5063232;28;43205;-79
2023/08/15 04:46:50;;;;;;;;;;;27.80;64.30;;;;;;5065461;28;43237;-79
2023/08/15 04:49:16;;;;;;;;;;;27.70;63.20;;;;;;5065635;28;42988;-79
2023/08/15 04:51:42;;;;;;;;;;;27.80;63.30;;;;;;5062410;28;44164;-79
2023/08/15 04:54:07;;;;;;;;;;;27.70;63.30;;;;;;5062377;28;43985;-79
2023/08/15 04:56:33;;;;;;;;;;;27.80;63.40;;;;;;5062242;28;43157;-79
2023/08/15 04:58:58;;;;;;;;;;;27.70;63.00;;;;;;5065604;28;42934;-80
2023/08/15 05:01:24;;;;;;;;;;;28.00;63.30;;;;;;5064033;28;43054;-79
2023/08/15 05:03:50;;;;;;;;;;;27.80;63.10;;;;;;5060136;28;42951;-79
2023/08/15 05:06:15;;;;;;;;;;;27.60;63.30;;;;;;5063171;28;43034;-80
2023/08/15 05:08:41;;;;;;;;;;;27.70;63.40;;;;;;5062962;28;43245;-79
2023/08/15 05:11:08;;;;;;;;;;;27.70;63.80;;;;;;5053627;28;42983;-79
2023/08/15 05:13:33;;;;;;;;;;;27.60;63.80;;;;;;5054780;28;43426;-79
2023/08/15 05:15:59;;;;;;;;;;;27.60;64.00;;;;;;5065250;28;42841;-80
2023/08/15 05:18:25;;;;;;;;;;;27.60;64.50;;;;;;5058291;28;43479;-79
2023/08/15 05:20:50;;;;;;;;;;;27.50;64.50;;;;;;5064480;28;42987;-79
2023/08/15 05:23:16;;;;;;;;;;;27.60;64.50;;;;;;5063759;28;43390;-79
2023/08/15 05:25:43;;;;;;;;;;;27.60;64.60;;;;;;5063052;28;42826;-80
2023/08/15 05:28:09;;;;;;;;;;;27.60;64.60;;;;;;5063442;28;43591;-80
2023/08/15 05:30:34;;;;;;;;;;;27.60;64.50;;;;;;5064257;28;43199;-79
2023/08/15 05:33:00;;;;;;;;;;;27.70;64.40;;;;;;5055779;28;43772;-79
2023/08/15 05:35:26;;;;;;;;;;;27.70;64.00;;;;;;5064458;28;43038;-79
2023/08/15 05:37:51;;;;;;;;;;;27.70;63.50;;;;;;5062870;28;42946;-79
2023/08/15 05:40:17;;;;;;;;;;;28.00;63.00;;;;;;5061997;28;42841;-79
2023/08/15 05:42:42;;;;;;;;;;;28.00;62.60;;;;;;5059523;28;43825;-82
2023/08/15 05:45:08;;;;;;;;;;;28.00;63.00;;;;;;5059103;28;43077;-80
2023/08/15 05:47:40;;;;;;;;;;;28.10;62.50;;;;;;5064183;28;43035;-90
2023/08/15 05:50:06;;;;;;;;;;;27.80;61.00;;;;;;5054628;28;42934;-86
2023/08/15 05:52:31;;;;;;;;;;;28.10;62.10;;;;;;5059354;28;43605;-86
2023/08/15 05:54:57;;;;;;;;;;;28.00;61.70;;;;;;5058074;28;43136;-89
2023/08/15 05:57:23;;;;;;;;;;;29.30;65.00;;;;;;5044321;28;45421;-92
2023/08/15 05:59:48;;;;;;;;;;;28.00;61.60;;;;;;5063528;28;43919;-85
2023/08/15 06:02:14;;;;;;;;;;;28.10;61.80;;;;;;5044161;28;44258;-91
2023/08/15 06:04:40;;;;;;;;;;;28.40;63.80;;;;;;5060909;28;42812;-89
2023/08/15 06:07:05;;;;;;;;;;;28.20;63.20;;;;;;5058239;28;43129;-85
2023/08/15 06:09:31;;;;;;;;;;;28.80;64.00;;;;;;5061021;28;43177;-85
2023/08/15 06:12:04;;;;;;;;;;;27.90;61.90;;;;;;5056488;28;43382;-87
2023/08/15 06:14:29;;;;;;;;;;;28.10;60.80;;;;;;5054076;28;42954;-86
2023/08/15 06:16:55;;;;;;;;;;;28.00;61.80;;;;;;5043336;28;44560;-88
2023/08/15 06:19:20;;;;;;;;;;;28.00;63.70;;;;;;5051591;28;42976;-86
2023/08/15 06:21:46;;;;;;;;;;;28.00;61.50;;;;;;5061135;28;43939;-84
2023/08/15 06:24:12;;;;;;;;;;;28.10;61.60;;;;;;5060696;28;43411;-84
2023/08/15 06:26:38;;;;;;;;;;;28.20;62.40;;;;;;5059665;28;42969;-82
2023/08/15 06:29:06;;;;;;;;;;;28.50;62.20;;;;;;5062998;28;42999;-89
2023/08/15 06:31:32;;;;;;;;;;;27.90;60.00;;;;;;5052887;28;43310;-84
2023/08/15 06:33:58;;;;;;;;;;;28.20;61.80;;;;;;5057248;28;43229;-85
2023/08/15 06:36:24;;;;;;;;;;;28.20;61.50;;;;;;5060556;28;43135;-88
2023/08/15 06:38:50;;;;;;;;;;;28.30;62.70;;;;;;5068968;28;42986;-81
2023/08/15 06:41:16;;;;;;;;;;;28.30;61.60;;;;;;5042397;28;44924;-87
2023/08/15 06:43:42;;;;;;;;;;;28.40;61.90;;;;;;5034147;28;43022;-85
2023/08/15 06:46:08;;;;;;;;;;;28.60;61.20;;;;;;5053621;28;43090;-88
2023/08/15 06:48:33;;;;;;;;;;;28.40;61.10;;;;;;5065411;28;43047;-87
2023/08/15 06:51:03;;;;;;;;;;;28.40;63.80;;;;;;5040408;28;44773;-88
2023/08/15 06:53:29;;;;;;;;;;;28.40;62.10;;;;;;5044097;28;43307;-86
2023/08/15 06:55:54;;;;;;;;;;;28.40;60.50;;;;;;5059252;28;43106;-87
2023/08/15 06:58:20;;;;;;;;;;;28.40;62.30;;;;;;5061770;28;42849;-86
2023/08/15 07:00:46;;;;;;;;;;;28.50;62.80;;;;;;5055177;28;43659;-95
2023/08/15 07:03:12;;;;;;;;;;;28.40;61.40;;;;;;5058979;28;43059;-83
2023/08/15 07:05:38;;;;;;;;;;;28.50;60.90;;;;;;5062365;28;42939;-84
2023/08/15 07:08:03;;;;;;;;;;;28.50;61.20;;;;;;5064320;28;43046;-83
2023/08/15 07:10:30;;;;;;;;;;;28.50;60.70;;;;;;5062260;28;43717;-84
2023/08/15 07:12:55;;;;;;;;;;;28.50;60.40;;;;;;5038552;28;42932;-84
2023/08/15 07:15:21;;;;;;;;;;;28.40;59.40;;;;;;5060616;28;43941;-85
2023/08/15 07:17:46;;;;;;;;;;;28.50;60.40;;;;;;5061863;28;43164;-86
2023/08/15 07:20:14;;;;;;;;;;;28.50;59.70;;;;;;5058171;28;43819;-86
2023/08/15 07:22:41;;;;;;;;;;;28.40;59.90;;;;;;5058926;28;43006;-85
2023/08/15 07:25:08;;;;;;;;;;;28.50;59.80;;;;;;5063743;28;43797;-88
2023/08/15 07:27:34;;;;;;;;;;;28.50;58.30;;;;;;5059161;28;43038;-84
2023/08/15 07:29:59;;;;;;;;;;;28.00;61.10;;;;;;5038640;28;44265;-95
2023/08/15 07:32:28;;;;;;;;;;;28.50;59.80;;;;;;5061902;28;42963;-85
2023/08/15 07:34:57;;;;;;;;;;;28.60;58.00;;;;;;5070063;28;43050;-89
2023/08/15 07:37:25;;;;;;;;;;;28.50;59.50;;;;;;5043265;28;43117;-91
2023/08/15 07:39:56;;;;;;;;;;;28.50;58.50;;;;;;5068463;28;43208;-89
2023/08/15 07:42:21;;;;;;;;;;;28.50;59.50;;;;;;5039254;28;43011;-84
2023/08/15 07:44:47;;;;;;;;;;;28.50;59.00;;;;;;5071489;28;42965;-83
2023/08/15 07:47:12;;;;;;;;;;;28.50;58.40;;;;;;5064821;28;42978;-79
2023/08/15 07:49:38;;;;;;;;;;;28.60;58.60;;;;;;5064611;28;43021;-80
2023/08/15 07:52:04;;;;;;;;;;;28.50;58.20;;;;;;5063430;28;43062;-81
2023/08/15 07:54:30;;;;;;;;;;;28.60;57.90;;;;;;5067599;28;43674;-81
2023/08/15 07:56:55;;;;;;;;;;;28.50;57.60;;;;;;5067186;28;43968;-80
2023/08/15 07:59:21;;;;;;;;;;;28.50;57.50;;;;;;5067592;28;43058;-80
2023/08/15 08:01:46;;;;;;;;;;;28.70;57.30;;;;;;5065798;28;42913;-80
2023/08/15 08:04:12;;;;;;;;;;;28.70;57.40;;;;;;5064799;28;42981;-80
2023/08/15 08:06:38;;;;;;;;;;;28.60;57.10;;;;;;5069725;28;43056;-80
2023/08/15 08:09:05;;;;;;;;;;;28.50;56.90;;;;;;5064116;28;43462;-80
2023/08/15 08:11:30;;;;;;;;;;;28.70;57.00;;;;;;5068561;28;43151;-80
2023/08/15 08:13:56;;;;;;;;;;;28.60;56.80;;;;;;5055908;28;43337;-81
2023/08/15 08:16:21;;;;;;;;;;;28.70;56.80;;;;;;5069447;28;43064;-81
2023/08/15 08:18:47;;;;;;;;;;;28.70;56.90;;;;;;5063885;28;43537;-81
2023/08/15 08:21:12;;;;;;;;;;;28.50;56.80;;;;;;5066134;28;43013;-81
2023/08/15 08:23:38;;;;;;;;;;;28.60;56.80;;;;;;5065088;28;42916;-81
2023/08/15 08:26:04;;;;;;;;;;;29.10;56.80;;;;;;5063193;28;43015;-81
2023/08/15 08:28:30;;;;;;;;;;;28.90;56.60;;;;;;5043887;28;44448;-80
2023/08/15 08:30:56;;;;;;;;;;;28.60;56.50;;;;;;5068022;28;43720;-82
2023/08/15 08:33:21;;;;;;;;;;;28.90;56.60;;;;;;5056045;28;43655;-81
2023/08/15 08:35:47;;;;;;;;;;;28.70;56.60;;;;;;5066256;28;42994;-82
2023/08/15 08:38:12;;;;;;;;;;;28.70;56.50;;;;;;5064363;28;43233;-82
2023/08/15 08:40:39;;;;;;;;;;;28.70;56.60;;;;;;5068923;28;43098;-82
2023/08/15 08:43:05;;;;;;;;;;;28.70;56.50;;;;;;5064385;28;43632;-81
2023/08/15 08:45:31;;;;;;;;;;;28.70;56.50;;;;;;5064154;28;43002;-83
2023/08/15 08:47:57;;;;;;;;;;;28.70;56.30;;;;;;5045188;28;43619;-81
2023/08/15 08:50:23;;;;;;;;;;;28.70;56.10;;;;;;5063732;28;42961;-82
2023/08/15 08:52:49;;;;;;;;;;;28.80;56.10;;;;;;5063167;28;43553;-82
2023/08/15 08:55:16;;;;;;;;;;;28.70;56.10;;;;;;5044140;28;42927;-82
2023/08/15 08:57:44;;;;;;;;;;;28.70;56.10;;;;;;5063551;28;43296;-82
2023/08/15 09:00:11;;;;;;;;;;;28.70;56.20;;;;;;5064527;28;43222;-79
2023/08/15 09:02:53;;;;;;;;;;;28.80;55.60;;;;;;5062687;28;43471;-82
2023/08/15 09:05:19;;;;;;;;;;;28.90;55.90;;;;;;5065547;28;43251;-83
2023/08/15 09:07:44;;;;;;;;;;;28.70;56.20;;;;;;5060000;28;43017;-83
2023/08/15 09:10:10;;;;;;;;;;;28.70;55.90;;;;;;5062692;28;43721;-83
2023/08/15 09:12:37;;;;;;;;;;;28.80;55.40;;;;;;5062266;28;43005;-87
2023/08/15 09:15:07;;;;;;;;;;;28.80;55.90;;;;;;5040492;28;43005;-83
2023/08/15 09:17:32;;;;;;;;;;;28.90;54.60;;;;;;5063612;28;43200;-86
2023/08/15 09:20:27;;;;;;;;;;;28.90;55.80;;;;;;5062933;28;43014;-83
2023/08/15 09:22:55;;;;;;;;;;;28.80;54.40;;;;;;5049178;28;44064;-84
2023/08/15 09:25:20;;;;;;;;;;;28.80;56.20;;;;;;5066932;28;43036;-83
2023/08/15 09:27:46;;;;;;;;;;;28.90;55.60;;;;;;5063521;28;43276;-86
2023/08/15 09:30:16;;;;;;;;;;;28.90;55.50;;;;;;5061408;28;43152;-81
2023/08/15 09:32:43;;;;;;;;;;;28.90;54.30;;;;;;5062745;28;44784;-78
2023/08/15 09:35:09;;;;;;;;;;;29.00;55.20;;;;;;5064328;28;42967;-81
2023/08/15 09:37:39;;;;;;;;;;;28.90;54.90;;;;;;5063181;28;43038;-84
2023/08/15 09:40:06;;;;;;;;;;;29.20;54.70;;;;;;5060571;28;43623;-85
2023/08/15 09:42:31;;;;;;;;;;;29.00;54.60;;;;;;5045162;28;44207;-85
2023/08/15 09:45:00;;;;;;;;;;;29.00;54.80;;;;;;5061540;28;43128;-91
2023/08/15 09:47:25;;;;;;;;;;;29.60;55.60;;;;;;5045347;28;44834;-89
2023/08/15 09:49:54;;;;;;;;;;;29.40;56.10;;;;;;5061913;28;43609;-86
2023/08/15 09:52:20;;;;;;;;;;;28.90;53.00;;;;;;5061921;28;43821;-88
2023/08/15 09:54:45;;;;;;;;;;;29.90;55.30;;;;;;5043732;28;43074;-83
2023/08/15 09:57:11;;;;;;;;;;;29.00;54.30;;;;;;5059651;28;43108;-82
2023/08/15 09:59:37;;;;;;;;;;;29.00;54.40;;;;;;5060486;28;42935;-82
2023/08/15 10:02:04;;;;;;;;;;;28.90;54.30;;;;;;5057223;28;43420;-83
2023/08/15 10:04:31;;;;;;;;;;;29.00;54.00;;;;;;5057003;28;42992;-82
2023/08/15 10:06:57;;;;;;;;;;;29.00;53.90;;;;;;5054424;28;43454;-82
2023/08/15 10:09:24;;;;;;;;;;;29.30;53.30;;;;;;5053544;28;43098;-82
2023/08/15 10:11:49;;;;;;;;;;;29.10;53.50;;;;;;5055757;28;43646;-82
2023/08/15 10:14:17;;;;;;;;;;;29.00;53.60;;;;;;5043289;28;43034;-80
2023/08/15 10:16:43;;;;;;;;;;;29.10;53.60;;;;;;5063709;28;43786;-79
2023/08/15 10:19:14;;;;;;;;;;;29.00;53.60;;;;;;5059408;28;42999;-79
2023/08/15 10:21:45;;;;;;;;;;;29.10;53.70;;;;;;5062163;28;43249;-79
2023/08/15 10:24:11;;;;;;;;;;;29.00;53.60;;;;;;5059186;28;43208;-79
2023/08/15 10:26:37;;;;;;;;;;;29.10;53.80;;;;;;5063241;28;43629;-79
2023/08/15 10:29:03;;;;;;;;;;;29.10;53.90;;;;;;5064054;28;43078;-79
2023/08/15 10:31:38;;;;;;;;;;;29.10;53.90;;;;;;5063936;28;42995;-79
2023/08/15 10:34:04;;;;;;;;;;;29.00;52.80;;;;;;5064414;28;43212;-79
2023/08/15 10:36:36;;;;;;;;;;;29.10;53.70;;;;;;5028859;28;43759;-79
2023/08/15 10:39:05;;;;;;;;;;;29.00;53.40;;;;;;5063135;28;43026;-79
2023/08/15 10:41:31;;;;;;;;;;;29.10;52.90;;;;;;5063019;28;43079;-79
2023/08/15 10:44:00;;;;;;;;;;;29.10;53.80;;;;;;5063900;28;42950;-79
2023/08/15 10:46:27;;;;;;;;;;;29.10;53.60;;;;;;5064390;28;43051;-79
2023/08/15 10:48:54;;;;;;;;;;;29.20;53.50;;;;;;5063854;28;43088;-79
2023/08/15 10:51:27;;;;;;;;;;;29.20;53.40;;;;;;5063380;28;44099;-79
2023/08/15 10:53:53;;;;;;;;;;;29.10;52.60;;;;;;5061268;28;43114;-80
2023/08/15 10:56:23;;;;;;;;;;;29.00;53.70;;;;;;5063465;28;43100;-79
2023/08/15 10:58:49;;;;;;;;;;;29.10;52.80;;;;;;5061836;28;42951;-80
2023/08/15 11:01:22;;;;;;;;;;;29.20;53.70;;;;;;5064405;28;43707;-81
2023/08/15 11:03:49;;;;;;;;;;;29.20;52.70;;;;;;5062926;28;42984;-79
2023/08/15 11:06:15;;;;;;;;;;;29.10;53.90;;;;;;5042016;28;43886;-79
2023/08/15 11:08:41;;;;;;;;;;;29.20;54.10;;;;;;5054990;28;43271;-79
2023/08/15 11:11:07;;;;;;;;;;;29.20;54.40;;;;;;5059185;28;43676;-79
2023/08/15 11:13:37;;;;;;;;;;;29.20;54.20;;;;;;5059380;28;43041;-79
2023/08/15 11:16:03;;;;;;;;;;;29.30;53.30;;;;;;5056489;28;42891;-79
2023/08/15 11:18:29;;;;;;;;;;;29.20;54.10;;;;;;5062850;28;43039;-79
2023/08/15 11:20:54;;;;;;;;;;;29.20;54.00;;;;;;5061971;28;43355;-78
2023/08/15 11:23:20;;;;;;;;;;;29.00;54.20;;;;;;5061320;28;43287;-79
2023/08/15 11:25:46;;;;;;;;;;;29.10;54.20;;;;;;5040286;28;43827;-85
2023/08/15 11:28:11;;;;;;;;;;;29.20;54.60;;;;;;5060605;28;43026;-85
2023/08/15 11:30:37;;;;;;;;;;;29.20;54.50;;;;;;5059978;28;42967;-80
2023/08/15 11:33:03;;;;;;;;;;;29.20;54.70;;;;;;5062834;28;43397;-86
2023/08/15 11:35:28;;;;;;;;;;;29.20;54.70;;;;;;5045232;28;42992;-80
2023/08/15 11:37:54;;;;;;;;;;;29.20;54.60;;;;;;5043753;28;43070;-79
2023/08/15 11:40:19;;;;;;;;;;;29.20;54.80;;;;;;5047595;28;44844;-79
2023/08/15 11:42:48;;;;;;;;;;;29.20;54.80;;;;;;5065550;28;42908;-79
2023/08/15 11:45:21;;;;;;;;;;;29.30;53.80;;;;;;5066656;28;43487;-80
2023/08/15 11:47:53;;;;;;;;;;;29.20;53.90;;;;;;5070958;28;43213;-79
2023/08/15 11:50:25;;;;;;;;;;;29.30;54.50;;;;;;5064014;28;43552;-80
2023/08/15 11:52:58;;;;;;;;;;;29.30;53.60;;;;;;5066668;28;42966;-81
2023/08/15 11:55:36;;;;;;;;;;;29.30;53.60;;;;;;5064945;28;43249;-80
2023/08/15 11:58:21;;;;;;;;;;;29.60;53.80;;;;;;5064331;28;42890;-79
2023/08/15 12:00:58;;;;;;;;;;;29.40;53.50;;;;;;5063415;28;43800;-79
2023/08/15 12:03:24;;;;;;;;;;;29.20;53.60;;;;;;5068902;28;43027;-79
2023/08/15 12:05:54;;;;;;;;;;;29.40;54.60;;;;;;5064224;28;42899;-78
2023/08/15 12:08:19;;;;;;;;;;;29.30;53.50;;;;;;5065797;28;43368;-81
2023/08/15 12:10:46;;;;;;;;;;;29.30;55.20;;;;;;5065784;28;44195;-76
2023/08/15 12:13:12;;;;;;;;;;;29.30;54.70;;;;;;5042820;28;43048;-78
2023/08/15 12:15:37;;;;;;;;;;;29.30;54.60;;;;;;5040814;28;43129;-79
2023/08/15 12:18:03;;;;;;;;;;;29.30;54.90;;;;;;5064845;28;43283;-78
2023/08/15 12:20:28;;;;;;;;;;;29.30;54.70;;;;;;5062583;28;43694;-78
2023/08/15 12:22:54;;;;;;;;;;;29.30;54.50;;;;;;5067094;28;42996;-78
2023/08/15 12:25:19;;;;;;;;;;;29.30;54.80;;;;;;5063369;28;44447;-79
2023/08/15 12:27:45;;;;;;;;;;;29.10;54.50;;;;;;5066112;28;42928;-78
2023/08/15 12:30:10;;;;;;;;;;;29.40;54.80;;;;;;5054267;28;43111;-80
2023/08/15 12:32:36;;;;;;;;;;;29.40;54.50;;;;;;5057285;28;42912;-80
2023/08/15 12:35:02;;;;;;;;;;;29.30;54.80;;;;;;5061906;28;43239;-79
2023/08/15 12:37:27;;;;;;;;;;;29.50;54.80;;;;;;5063079;28;43212;-78
2023/08/15 12:39:53;;;;;;;;;;;29.30;54.80;;;;;;5056810;28;44991;-79
2023/08/15 12:42:18;;;;;;;;;;;29.30;54.70;;;;;;5069092;28;42971;-78
2023/08/15 12:44:44;;;;;;;;;;;29.30;54.80;;;;;;5063291;28;43032;-77
2023/08/15 12:47:17;;;;;;;;;;;29.20;54.80;;;;;;5064922;28;42999;-79
2023/08/15 12:49:50;;;;;;;;;;;29.40;53.90;;;;;;5064361;28;43641;-78
2023/08/15 12:52:25;;;;;;;;;;;29.30;54.10;;;;;;5059379;28;42980;-78
2023/08/15 12:54:55;;;;;;;;;;;29.30;54.30;;;;;;5058982;28;43484;-79
2023/08/15 12:57:26;;;;;;;;;;;29.30;54.30;;;;;;5057519;28;43056;-78
2023/08/15 12:59:54;;;;;;;;;;;29.30;54.40;;;;;;5054324;28;43052;-78
2023/08/15 13:02:23;;;;;;;;;;;29.40;54.20;;;;;;5062717;28;43061;-78
2023/08/15 13:04:53;;;;;;;;;;;29.40;54.10;;;;;;5067989;28;43114;-78
2023/08/15 13:07:24;;;;;;;;;;;29.40;54.10;;;;;;5067855;28;43028;-78
2023/08/15 13:09:54;;;;;;;;;;;29.40;54.20;;;;;;5065493;28;42991;-79
2023/08/15 13:12:23;;;;;;;;;;;29.30;54.20;;;;;;5073050;28;42943;-79
2023/08/15 13:14:51;;;;;;;;;;;29.30;54.30;;;;;;5063753;28;43024;-79
2023/08/15 13:17:17;;;;;;;;;;;29.40;54.30;;;;;;5060892;28;43034;-79
2023/08/15 13:19:44;;;;;;;;;;;29.40;54.70;;;;;;5068791;28;43900;-78
2023/08/15 13:22:17;;;;;;;;;;;29.40;54.80;;;;;;5078312;28;42993;-78
2023/08/15 13:24:43;;;;;;;;;;;29.30;54.40;;;;;;5059966;28;42915;-79
2023/08/15 13:27:11;;;;;;;;;;;29.40;54.60;;;;;;5067162;28;43030;-78
2023/08/15 13:29:41;;;;;;;;;;;29.40;54.70;;;;;;5060240;28;43038;-78
2023/08/15 13:32:08;;;;;;;;;;;29.30;54.80;;;;;;5066911;28;42913;-79
2023/08/15 13:34:34;;;;;;;;;;;29.20;54.30;;;;;;5069790;28;43739;-81
2023/08/15 13:37:05;;;;;;;;;;;29.30;54.60;;;;;;5062478;28;43094;-84
2023/08/15 13:39:32;;;;;;;;;;;30.50;55.30;;;;;;5062339;28;43646;-82
2023/08/15 13:42:00;;;;;;;;;;;29.40;54.20;;;;;;5058723;28;42885;-82
2023/08/15 13:44:27;;;;;;;;;;;29.40;54.10;;;;;;5072771;28;43032;-82
2023/08/15 13:46:59;;;;;;;;;;;29.40;54.70;;;;;;5071040;28;43011;-83
2023/08/15 13:49:25;;;;;;;;;;;29.40;54.50;;;;;;5065391;28;43044;-82
2023/08/15 13:51:50;;;;;;;;;;;29.30;54.70;;;;;;5080148;28;42947;-82
2023/08/15 13:54:16;;;;;;;;;;;29.50;56.70;;;;;;5084001;28;43006;-81
2023/08/15 13:56:42;;;;;;;;;;;29.50;55.60;;;;;;5070284;28;42935;-82
2023/08/15 13:59:07;;;;;;;;;;;29.40;54.60;;;;;;5063668;28;43170;-82
2023/08/15 14:01:33;;;;;;;;;;;29.40;55.80;;;;;;5064712;28;43057;-82
2023/08/15 14:03:58;;;;;;;;;;;29.50;54.70;;;;;;5062062;28;43046;-82
2023/08/15 14:06:24;;;;;;;;;;;29.30;55.60;;;;;;5080475;28;43004;-82
2023/08/15 14:08:50;;;;;;;;;;;29.30;54.10;;;;;;5065211;28;43620;-81
2023/08/15 14:11:15;;;;;;;;;;;29.40;53.90;;;;;;5055468;28;43735;-80
2023/08/15 14:13:42;;;;;;;;;;;29.50;54.00;;;;;;5068199;28;42863;-80